Estación de Longaví Norte
Ultimos registro cada 15 minutos 58
| N° | Estación | Fecha / Hora | Temperatura | Humedad | Lluvia | Velocidad | Dirección | Radiación | Presion |
| 58 | Longaví Norte | 01-09-2026 14:15 | 22,5 | 54,5 | 0 | 0,7 | 13 | 808,1 | 1000,7 |
| 57 | Longaví Norte | 01-09-2026 14:00 | 22,3 | 51,1 | 0 | 0,7 | 278 | 660,6 | 1000,8 |
| 56 | Longaví Norte | 01-09-2026 13:45 | 21,9 | 55,4 | 0 | 0,7 | 261 | 604,4 | 1001,2 |
| 55 | Longaví Norte | 01-09-2026 13:30 | 21,1 | 56,2 | 0 | 1 | 263 | 688,1 | 1001,6 |
| 54 | Longaví Norte | 01-09-2026 13:15 | 21,1 | 55,3 | 0 | 1 | 263 | 758,1 | 1001,9 |
| 53 | Longaví Norte | 01-09-2026 13:00 | 21,3 | 57,2 | 0 | 1 | 261 | 740,6 | 1002,1 |
| 52 | Longaví Norte | 01-09-2026 12:45 | 20 | 61,2 | 0 | 1 | 225 | 574,4 | 1002,3 |
| 51 | Longaví Norte | 01-09-2026 12:30 | 20,8 | 59,5 | 0 | 1 | 254 | 751,9 | 1002,6 |
| 50 | Longaví Norte | 01-09-2026 12:15 | 20,4 | 64,3 | 0 | 1 | 279 | 756,9 | 1003 |
| 49 | Longaví Norte | 01-09-2026 12:00 | 19,6 | 62,8 | 0 | 1 | 254 | 671,9 | 1003,2 |
| 48 | Longaví Norte | 01-09-2026 11:45 | 18,8 | 65,3 | 0 | 1 | 232 | 654,4 | 1003,2 |
| 47 | Longaví Norte | 01-09-2026 11:30 | 16,9 | 72,5 | 0 | 1 | 240 | 633,1 | 1003,3 |
| 46 | Longaví Norte | 01-09-2026 11:15 | 18,9 | 70,2 | 0 | 0,7 | 278 | 630,6 | 1003,5 |
| 45 | Longaví Norte | 01-09-2026 11:00 | 17,5 | 72,8 | 0 | 1 | 246 | 606,9 | 1003,9 |
| 44 | Longaví Norte | 01-09-2026 10:45 | 17,1 | 73,2 | 0 | 0,7 | 291 | 580,6 | 1003,8 |
| 43 | Longaví Norte | 01-09-2026 10:30 | 17,8 | 71,7 | 0 | 0,3 | 299 | 546,9 | 1004 |
| 42 | Longaví Norte | 01-09-2026 10:15 | 17,1 | 73,2 | 0 | 0,3 | 251 | 293,1 | 1004,2 |
| 41 | Longaví Norte | 01-09-2026 10:00 | 15,7 | 76,3 | 0 | 0,3 | 354 | 455,6 | 1004,2 |
| 40 | Longaví Norte | 01-09-2026 09:45 | 15,3 | 79,5 | 0 | 0,7 | 296 | 30,6 | 1004,3 |
| 39 | Longaví Norte | 01-09-2026 09:30 | 14 | 83,2 | 0 | 0,3 | 350 | 393,1 | 1004,5 |
| 38 | Longaví Norte | 01-09-2026 09:15 | 13,4 | 85,5 | 0 | 0,7 | 334 | 31,9 | 1004,5 |
| 37 | Longaví Norte | 01-09-2026 09:00 | 12,5 | 89,8 | 0 | 0,3 | 302 | 124,4 | 1004,6 |
| 36 | Longaví Norte | 01-09-2026 08:45 | 12 | 91 | 0 | 0,3 | 295 | 266,9 | 1004,5 |
| 35 | Longaví Norte | 01-09-2026 08:30 | 11,3 | 93 | 0 | 0,3 | 272 | 221,9 | 1004,4 |
| 34 | Longaví Norte | 01-09-2026 08:15 | 9,8 | 99,3 | 0 | 0 | 220 | 188,1 | 1004,2 |
| 33 | Longaví Norte | 01-09-2026 08:00 | 8,3 | 100 | 0 | 0 | 204 | 148,1 | 1004 |
| 32 | Longaví Norte | 01-09-2026 07:45 | 6,1 | 100 | 0 | 0 | 204 | 79,4 | 1003,9 |
| 31 | Longaví Norte | 01-09-2026 07:30 | 5,7 | 100 | 0 | 0 | 204 | 20,6 | 1003,7 |
| 30 | Longaví Norte | 01-09-2026 07:15 | 5,8 | 100 | 0 | 0 | 204 | 9,4 | 1003,7 |
| 29 | Longaví Norte | 01-09-2026 07:00 | 6,2 | 100 | 0 | 0 | 204 | 0,6 | 1003,8 |
| 28 | Longaví Norte | 01-09-2026 06:45 | 5,7 | 100 | 0 | 0 | 204 | 0,6 | 1003,5 |
| 27 | Longaví Norte | 01-09-2026 06:30 | 5,9 | 100 | 0 | 0 | 204 | 0,6 | 1003,6 |
| 26 | Longaví Norte | 01-09-2026 06:15 | 6 | 99,9 | 0 | 0 | 204 | 0,6 | 1003,5 |
| 25 | Longaví Norte | 01-09-2026 06:00 | 6,1 | 100 | 0 | 0 | 204 | 0,6 | 1003,5 |
| 24 | Longaví Norte | 01-09-2026 05:45 | 6,4 | 99,8 | 0 | 0 | 204 | 0,6 | 1003,5 |
| 23 | Longaví Norte | 01-09-2026 05:30 | 6,6 | 99,7 | 0 | 0 | 204 | 0,6 | 1003,4 |
| 22 | Longaví Norte | 01-09-2026 05:15 | 6,7 | 99,5 | 0 | 0 | 204 | 0,6 | 1003,6 |
| 21 | Longaví Norte | 01-09-2026 05:00 | 7,1 | 99,4 | 0 | 0 | 204 | 0,6 | 1003,6 |
| 20 | Longaví Norte | 01-09-2026 04:45 | 7,4 | 99,3 | 0 | 0 | 204 | 0,6 | 1003,6 |
| 19 | Longaví Norte | 01-09-2026 04:30 | 7,7 | 99,1 | 0 | 0 | 204 | 0,6 | 1003,5 |
| 18 | Longaví Norte | 01-09-2026 04:15 | 7,7 | 99 | 0 | 0 | 204 | 0,6 | 1003,5 |
| 17 | Longaví Norte | 01-09-2026 04:00 | 7,9 | 98,8 | 0 | 0 | 204 | 0,6 | 1003,3 |
| 16 | Longaví Norte | 01-09-2026 03:45 | 7,8 | 98,6 | 0 | 0 | 204 | 0,6 | 1003,2 |
| 15 | Longaví Norte | 01-09-2026 03:30 | 8,1 | 98,5 | 0 | 0 | 204 | 0,6 | 1003,3 |
| 14 | Longaví Norte | 01-09-2026 03:15 | 8,1 | 98,5 | 0 | 0 | 204 | 0,6 | 1003,4 |
| 13 | Longaví Norte | 01-09-2026 03:00 | 8,1 | 99 | 0 | 0 | 204 | 0,6 | 1003,5 |
| 12 | Longaví Norte | 01-09-2026 02:45 | 7,8 | 98,5 | 0 | 0 | 204 | 0,6 | 1003,7 |
| 11 | Longaví Norte | 01-09-2026 02:30 | 8 | 98,5 | 0 | 0 | 204 | 0,6 | 1003,8 |
| 10 | Longaví Norte | 01-09-2026 02:15 | 7,8 | 98,2 | 0 | 0 | 204 | 0,6 | 1004,1 |
| 9 | Longaví Norte | 01-09-2026 02:00 | 8 | 98,2 | 0 | 0 | 204 | 0,6 | 1004,2 |
| 8 | Longaví Norte | 01-09-2026 01:45 | 8 | 98 | 0 | 0 | 204 | 0,6 | 1004,3 |
| 7 | Longaví Norte | 01-09-2026 01:30 | 8,1 | 97,9 | 0 | 0 | 204 | 0,6 | 1004,4 |
| 6 | Longaví Norte | 01-09-2026 01:15 | 8,1 | 97,8 | 0 | 0 | 204 | 0,6 | 1004,5 |
| 5 | Longaví Norte | 01-09-2026 01:00 | 8,1 | 97,5 | 0 | 0 | 204 | 0,6 | 1004,4 |
| 4 | Longaví Norte | 01-09-2026 00:45 | 8,4 | 97,3 | 0 | 0 | 204 | 0,6 | 1004,4 |
| 3 | Longaví Norte | 01-09-2026 00:30 | 8,4 | 97,2 | 0 | 0 | 204 | 0,6 | 1004,5 |
| 2 | Longaví Norte | 01-09-2026 00:15 | 8,3 | 97,2 | 0 | 0 | 204 | 0,6 | 1004,3 |
| 1 | Longaví Norte | 01-09-2026 00:00 | 8,2 | 97,1 | 0 | 0 | 204 | 0,6 | 1004,3 |